MOL Celebration — C6WW7 — position and weather

sailwx.info

Track history (hours):
 
Tides and Currents Weather Stations Pressure Air Temp Water Temp Dewpoint Dewpoint Depression Visibility Wind Speed Wind Dir Waves Ship Positions

MOL Celebration

Last reported at 2015-May-21 17:15 UTC. Time now 2015-May-29 02:14 UTC.
Position N 35°28' E 141°28'.

Length 316 m; draft 12.6 m.

Type: Ship (hazmat cat D). MMSI: 309901000.

Date/timePositionNaut miles runAvg speedWind from/ knotsBaromVisibWave heightAir tempDewpointWater temp
2015-May-21 17:15N 35°28' E 141°28'1420.4
2015-May-21 16:33N 35°22' E 141°13'2020.5
2015-May-21 15:34N 35°12' E 140°51'2019.7
2015-May-21 14:33N 35°02' E 140°30'1919.0
2015-May-21 13:33N 34°52' E 140°10'1918.8
2015-May-21 12:33N 34°45' E 139°49'1818.3
2015-May-21 11:33N 34°38' E 139°28'1817.8
2015-May-21 10:33N 34°31' E 139°08'5617.8
2015-May-21 07:23N 34°08' E 138°06'  
2015-May-18 15:31N 23°55' E 118°33'1919.2
2015-May-18 14:33N 23°44' E 118°17'22218.5
2015-May-18 02:32N 22°08' E 114°40'1818.5
2015-May-18 01:33N 22°08' E 114°20'1312.3
2015-May-18 00:30N 22°14' E 114°08'6 6.3
2015-May-17 23:33N 22°20' E 114°07'0 0.2
2015-May-17 22:31N 22°20' E 114°08'0 0.0
2015-May-17 21:25N 22°20' E 114°08'0 0.0
2015-May-17 20:28N 22°20' E 114°08'0 0.0
2015-May-17 19:31N 22°20' E 114°08'0 0.0
2015-May-17 18:31N 22°20' E 114°08'0 0.0
2015-May-17 17:31N 22°20' E 114°08'0 0.0
2015-May-17 16:31N 22°20' E 114°08'0 0.0
2015-May-17 15:31N 22°20' E 114°08'0 0.0
2015-May-17 14:22N 22°20' E 114°08'0 0.0
2015-May-17 13:31N 22°20' E 114°08'0 0.0
2015-May-17 12:31N 22°20' E 114°08'0 0.0
2015-May-17 11:31N 22°20' E 114°08'0 0.0
2015-May-17 10:19N 22°20' E 114°08'0 0.0
2015-May-17 08:19N 22°20' E 114°08'0 0.0
2015-May-17 07:31N 22°20' E 114°08'0 0.0
2015-May-17 06:22N 22°20' E 114°08'0 0.0
2015-May-17 05:25N 22°20' E 114°08'0 0.0
2015-May-17 04:25N 22°20' E 114°08'0 0.0
2015-May-17 03:25N 22°20' E 114°08'2 2.0
2015-May-17 02:33N 22°19' E 114°06'11 9.9
2015-May-17 01:28N 22°10' E 114°13'8 8.6
2015-May-17 00:33N 22°09' E 114°21'8 7.6
2015-May-16 23:34N 22°02' E 114°25'2017.0
2015-May-16 22:25N 21°43' E 114°21'  
Track history (hours):
 
Tides and Currents Weather Stations Pressure Air Temp Water Temp Dewpoint Dewpoint Depression Visibility Wind Speed Wind Dir Waves Ship Positions

MOL Celebration

Last reported at 2015-May-21 17:15 UTC. Time now 2015-May-29 02:14 UTC.
Position N 35°28' E 141°28'.

Length 316 m; draft 12.6 m.

Type: Ship (hazmat cat D). MMSI: 309901000.

Date/timePositionNaut miles runAvg speedWind from/ knotsBaromVisibWave heightAir tempDewpointWater temp
2015-May-21 17:15N 35°28' E 141°28'1420.4
2015-May-21 16:33N 35°22' E 141°13'2020.5
2015-May-21 15:34N 35°12' E 140°51'2019.7
2015-May-21 14:33N 35°02' E 140°30'1919.0
2015-May-21 13:33N 34°52' E 140°10'1918.8
2015-May-21 12:33N 34°45' E 139°49'1818.3
2015-May-21 11:33N 34°38' E 139°28'1817.8
2015-May-21 10:33N 34°31' E 139°08'5617.8
2015-May-21 07:23N 34°08' E 138°06'  
2015-May-18 15:31N 23°55' E 118°33'1919.2
2015-May-18 14:33N 23°44' E 118°17'22218.5
2015-May-18 02:32N 22°08' E 114°40'1818.5
2015-May-18 01:33N 22°08' E 114°20'1312.3
2015-May-18 00:30N 22°14' E 114°08'6 6.3
2015-May-17 23:33N 22°20' E 114°07'0 0.2
2015-May-17 22:31N 22°20' E 114°08'0 0.0
2015-May-17 21:25N 22°20' E 114°08'0 0.0
2015-May-17 20:28N 22°20' E 114°08'0 0.0
2015-May-17 19:31N 22°20' E 114°08'0 0.0
2015-May-17 18:31N 22°20' E 114°08'0 0.0
2015-May-17 17:31N 22°20' E 114°08'0 0.0
2015-May-17 16:31N 22°20' E 114°08'0 0.0
2015-May-17 15:31N 22°20' E 114°08'0 0.0
2015-May-17 14:22N 22°20' E 114°08'0 0.0
2015-May-17 13:31N 22°20' E 114°08'0 0.0
2015-May-17 12:31N 22°20' E 114°08'0 0.0
2015-May-17 11:31N 22°20' E 114°08'0 0.0
2015-May-17 10:19N 22°20' E 114°08'0 0.0
2015-May-17 08:19N 22°20' E 114°08'0 0.0
2015-May-17 07:31N 22°20' E 114°08'0 0.0
2015-May-17 06:22N 22°20' E 114°08'0 0.0
2015-May-17 05:25N 22°20' E 114°08'0 0.0
2015-May-17 04:25N 22°20' E 114°08'0 0.0
2015-May-17 03:25N 22°20' E 114°08'2 2.0
2015-May-17 02:33N 22°19' E 114°06'11 9.9
2015-May-17 01:28N 22°10' E 114°13'8 8.6
2015-May-17 00:33N 22°09' E 114°21'8 7.6
2015-May-16 23:34N 22°02' E 114°25'2017.0
2015-May-16 22:25N 21°43' E 114°21'  

Dump ship's entire track history